Home > Products > Valid Products > TAF

000
FTUS41 KRNK 260101 AAB
TAFROA
TAF AMD
KROA 260101Z 2601/2624 35012G20KT 4SM -SHRA BR OVC007
     FM260130 11006KT 5SM BR SCT005 OVC009
     FM260700 06008KT 3SM -SHRA OVC007
     FM261000 05003KT 2SM BR OVC003
     FM261500 02006KT P6SM SCT007 OVC015
     FM262200 35007KT P6SM BKN025=



000
FTUS41 KRNK 260101 AAB
TAFROA
TAF AMD
KROA 260101Z 2601/2624 35012G20KT 4SM -SHRA BR OVC007
     FM260130 11006KT 5SM BR SCT005 OVC009
     FM260700 06008KT 3SM -SHRA OVC007
     FM261000 05003KT 2SM BR OVC003
     FM261500 02006KT P6SM SCT007 OVC015
     FM262200 35007KT P6SM BKN025=



000
FTUS41 KRNK 260053 AAA
TAFROA
TAF AMD
KROA 260053Z 2601/2624 11006KT 5SM BR SCT005 OVC009
     FM260700 06008KT 3SM -SHRA OVC007
     FM261000 05003KT 2SM BR OVC003
     FM261500 02006KT P6SM SCT007 OVC015
     FM262200 35007KT P6SM BKN025=



000
FTUS41 KRNK 260053 AAA
TAFROA
TAF AMD
KROA 260053Z 2601/2624 11006KT 5SM BR SCT005 OVC009
     FM260700 06008KT 3SM -SHRA OVC007
     FM261000 05003KT 2SM BR OVC003
     FM261500 02006KT P6SM SCT007 OVC015
     FM262200 35007KT P6SM BKN025=



000
FTUS41 KRNK 260053 AAA
TAFLYH
TAF AMD
KLYH 260053Z 2601/2624 02008KT 1SM -DZ BR OVC005
     FM260700 04005KT 2SM -SHRA BR OVC005
     FM261500 02009KT P6SM SCT007 OVC015
     FM262200 35005KT P6SM SCT015 OVC025=



000
FTUS41 KRNK 260053 AAA
TAFLYH
TAF AMD
KLYH 260053Z 2601/2624 02008KT 1SM -DZ BR OVC005
     FM260700 04005KT 2SM -SHRA BR OVC005
     FM261500 02009KT P6SM SCT007 OVC015
     FM262200 35005KT P6SM SCT015 OVC025=



000
FTUS41 KRNK 260052 AAA
TAFLWB
TAF AMD
KLWB 260052Z 2601/2624 06004KT 6SM BR SCT006 OVC010
     FM260300 01007KT 1/2SM -RA FG OVC002
     FM261400 02004KT 4SM BR OVC009
     FM261900 35005KT P6SM OVC015=



000
FTUS41 KRNK 252324
TAFLYH
TAF
KLYH 252324Z 2600/2624 04008KT 2SM -DZ BR OVC006
     FM260700 04005KT 2SM -SHRA BR OVC005
     FM261500 02009KT P6SM SCT007 OVC015
     FM262200 35005KT P6SM SCT015 OVC025=



000
FTUS41 KRNK 252324
TAFROA
TAF
KROA 252324Z 2600/2624 13008KT 6SM BR SCT005 OVC009
     FM260700 06008KT 3SM -SHRA OVC007
     FM261000 05003KT 2SM BR OVC003
     FM261500 02006KT P6SM SCT007 OVC015
     FM262200 35007KT P6SM BKN025=



000
FTUS41 KRNK 252324
TAFDAN
TAF
KDAN 252324Z 2600/2624 03006KT 3SM -DZ BR OVC004
     FM260500 06003KT 1/2SM FG OVC001
      TEMPO 2608/2611 2SM TSRA BR OVC006CB
     FM261600 02007KT P6SM OVC009
     FM262200 04006KT P6SM OVC020=



000
FTUS41 KRNK 252324
TAFLWB
TAF
KLWB 252324Z 2600/2624 06004KT 3SM -TSRA BR OVC007CB
     FM260400 01007KT 1/2SM -RA FG OVC002
     FM261400 02004KT 4SM BR OVC009
     FM261900 35005KT P6SM OVC015=



000
FTUS41 KRNK 252324
TAFDAN
TAF
KDAN 252324Z 2600/2624 03006KT 3SM -DZ BR OVC004
     FM260500 06003KT 1/2SM FG OVC001
      TEMPO 2608/2611 2SM TSRA BR OVC006CB
     FM261600 02007KT P6SM OVC009
     FM262200 04006KT P6SM OVC020=



000
FTUS41 KRNK 252324
TAFROA
TAF
KROA 252324Z 2600/2624 13008KT 6SM BR SCT005 OVC009
     FM260700 06008KT 3SM -SHRA OVC007
     FM261000 05003KT 2SM BR OVC003
     FM261500 02006KT P6SM SCT007 OVC015
     FM262200 35007KT P6SM BKN025=



000
FTUS41 KRNK 252324
TAFLWB
TAF
KLWB 252324Z 2600/2624 06004KT 3SM -TSRA BR OVC007CB
     FM260400 01007KT 1/2SM -RA FG OVC002
     FM261400 02004KT 4SM BR OVC009
     FM261900 35005KT P6SM OVC015=



000
FTUS41 KRNK 252324
TAFROA
TAF
KROA 252324Z 2600/2624 13008KT 6SM BR SCT005 OVC009
     FM260700 06008KT 3SM -SHRA OVC007
     FM261000 05003KT 2SM BR OVC003
     FM261500 02006KT P6SM SCT007 OVC015
     FM262200 35007KT P6SM BKN025=



000
FTUS41 KRNK 252324
TAFLYH
TAF
KLYH 252324Z 2600/2624 04008KT 2SM -DZ BR OVC006
     FM260700 04005KT 2SM -SHRA BR OVC005
     FM261500 02009KT P6SM SCT007 OVC015
     FM262200 35005KT P6SM SCT015 OVC025=



000
FTUS41 KRNK 252324
TAFDAN
TAF
KDAN 252324Z 2600/2624 03006KT 3SM -DZ BR OVC004
     FM260500 06003KT 1/2SM FG OVC001
      TEMPO 2608/2611 2SM TSRA BR OVC006CB
     FM261600 02007KT P6SM OVC009
     FM262200 04006KT P6SM OVC020=



000
FTUS41 KRNK 252324
TAFLWB
TAF
KLWB 252324Z 2600/2624 06004KT 3SM -TSRA BR OVC007CB
     FM260400 01007KT 1/2SM -RA FG OVC002
     FM261400 02004KT 4SM BR OVC009
     FM261900 35005KT P6SM OVC015=



000
FTUS41 KRNK 252324
TAFLYH
TAF
KLYH 252324Z 2600/2624 04008KT 2SM -DZ BR OVC006
     FM260700 04005KT 2SM -SHRA BR OVC005
     FM261500 02009KT P6SM SCT007 OVC015
     FM262200 35005KT P6SM SCT015 OVC025=



000
FTUS41 KRNK 252324
TAFBLF
TAF
KBLF 252324Z 2600/2624 19008KT P6SM SCT025 BKN150
     FM260200 17008KT 5SM -SHRA OVC025
      TEMPO 2603/2606 2SM TSRA BR SCT005 OVC012CB
     FM260600 23005KT 4SM -SHRA OVC020
     FM261200 30004KT P6SM BKN007 OVC012=



000
FTUS41 KRNK 252324
TAFBLF
TAF
KBLF 252324Z 2600/2624 19008KT P6SM SCT025 BKN150
     FM260200 17008KT 5SM -SHRA OVC025
      TEMPO 2603/2606 2SM TSRA BR SCT005 OVC012CB
     FM260600 23005KT 4SM -SHRA OVC020
     FM261200 30004KT P6SM BKN007 OVC012=



000
FTUS41 KRNK 252324
TAFDAN
TAF
KDAN 252324Z 2600/2624 03006KT 3SM -DZ BR OVC004
     FM260500 06003KT 1/2SM FG OVC001
      TEMPO 2608/2611 2SM TSRA BR OVC006CB
     FM261600 02007KT P6SM OVC009
     FM262200 04006KT P6SM OVC020=



000
FTUS41 KRNK 252324
TAFBLF
TAF
KBLF 252324Z 2600/2624 19008KT P6SM SCT025 BKN150
     FM260200 17008KT 5SM -SHRA OVC025
      TEMPO 2603/2606 2SM TSRA BR SCT005 OVC012CB
     FM260600 23005KT 4SM -SHRA OVC020
     FM261200 30004KT P6SM BKN007 OVC012=



000
FTUS41 KRNK 252034 AAA
TAFDAN
TAF AMD
KDAN 252034Z 2521/2618 05007KT 4SM BR SCT005 OVC011
      TEMPO 2521/2523 OVC009
     FM252300 03006KT 3SM -RADZ BR OVC006
      TEMPO 2606/2610 2SM TSRA BR OVC006CB
     FM261500 35006KT P6SM SCT007 OVC015=



000
FTUS41 KRNK 252034 AAA
TAFDAN
TAF AMD
KDAN 252034Z 2521/2618 05007KT 4SM BR SCT005 OVC011
      TEMPO 2521/2523 OVC009
     FM252300 03006KT 3SM -RADZ BR OVC006
      TEMPO 2606/2610 2SM TSRA BR OVC006CB
     FM261500 35006KT P6SM SCT007 OVC015=



000
FTUS41 KRNK 252033 AAA
TAFROA
TAF AMD
KROA 252033Z 2521/2618 11005KT 4SM BR SCT005 OVC009
      TEMPO 2521/2523 SCT009 OVC015
     FM252300 09004KT 3SM -RADZ BR OVC007
     FM261500 36005KT P6SM SCT007 OVC015=



000
FTUS41 KRNK 252033 AAA
TAFROA
TAF AMD
KROA 252033Z 2521/2618 11005KT 4SM BR SCT005 OVC009
      TEMPO 2521/2523 SCT009 OVC015
     FM252300 09004KT 3SM -RADZ BR OVC007
     FM261500 36005KT P6SM SCT007 OVC015=



000
FTUS41 KRNK 252033 AAA
TAFROA
TAF AMD
KROA 252033Z 2521/2618 11005KT 4SM BR SCT005 OVC009
      TEMPO 2521/2523 SCT009 OVC015
     FM252300 09004KT 3SM -RADZ BR OVC007
     FM261500 36005KT P6SM SCT007 OVC015=



000
FTUS41 KRNK 252033 AAA
TAFROA
TAF AMD
KROA 252033Z 2521/2618 11005KT 4SM BR SCT005 OVC009
      TEMPO 2521/2523 SCT009 OVC015
     FM252300 09004KT 3SM -RADZ BR OVC007
     FM261500 36005KT P6SM SCT007 OVC015=



000
FTUS41 KRNK 252033 AAA
TAFLYH
TAF AMD
KLYH 252033Z 2521/2618 04006KT 5SM BR BKN007 OVC013
      TEMPO 2521/2522 SCT009 OVC015
     FM252200 04008KT 3SM -DZ BR OVC006
     FM261500 02005KT P6SM SCT007 OVC015=



000
FTUS41 KRNK 252033 AAA
TAFLYH
TAF AMD
KLYH 252033Z 2521/2618 04006KT 5SM BR BKN007 OVC013
      TEMPO 2521/2522 SCT009 OVC015
     FM252200 04008KT 3SM -DZ BR OVC006
     FM261500 02005KT P6SM SCT007 OVC015=



000
FTUS41 KRNK 252033 AAA
TAFLYH
TAF AMD
KLYH 252033Z 2521/2618 04006KT 5SM BR BKN007 OVC013
      TEMPO 2521/2522 SCT009 OVC015
     FM252200 04008KT 3SM -DZ BR OVC006
     FM261500 02005KT P6SM SCT007 OVC015=



000
FTUS41 KRNK 252033 AAA
TAFLYH
TAF AMD
KLYH 252033Z 2521/2618 04006KT 5SM BR BKN007 OVC013
      TEMPO 2521/2522 SCT009 OVC015
     FM252200 04008KT 3SM -DZ BR OVC006
     FM261500 02005KT P6SM SCT007 OVC015=



000
FTUS41 KRNK 252032 AAA
TAFBLF
TAF AMD
KBLF 252032Z 2521/2618 13008KT P6SM SCT012 OVC025
      TEMPO 2521/2523 SCT007 OVC012
     FM252300 23012KT 3SM -RADZ BR OVC005
      TEMPO 2605/2609 2SM TSRA BR SCT005 OVC012CB
     FM261500 33007KT P6SM BKN007 OVC012=



000
FTUS41 KRNK 252032 AAA
TAFBLF
TAF AMD
KBLF 252032Z 2521/2618 13008KT P6SM SCT012 OVC025
      TEMPO 2521/2523 SCT007 OVC012
     FM252300 23012KT 3SM -RADZ BR OVC005
      TEMPO 2605/2609 2SM TSRA BR SCT005 OVC012CB
     FM261500 33007KT P6SM BKN007 OVC012=



000
FTUS41 KRNK 251729
TAFDAN
TAF
KDAN 251729Z 2518/2618 07006KT P6SM -SHRA SCT015 OVC035
      TEMPO 2520/2523 SCT009 OVC015
     FM252300 03006KT 3SM -RADZ BR OVC006
      TEMPO 2606/2610 2SM TSRA BR OVC006CB
     FM261500 35006KT P6SM SCT007 OVC015=



000
FTUS41 KRNK 251729
TAFLYH
TAF
KLYH 251729Z 2518/2618 05010KT 5SM -RA BR SCT015 OVC035
      TEMPO 2520/2523 SCT009 OVC015
     FM252300 04008KT 3SM -RADZ BR OVC006
     FM261500 02005KT P6SM SCT007 OVC015=



000
FTUS41 KRNK 251729
TAFLWB
TAF
KLWB 251729Z 2518/2618 VRB04KT P6SM -SHRA SCT012 OVC035
      TEMPO 2520/2523 5SM -RA BR SCT007 OVC012
     FM252300 VRB03KT 3SM -RADZ BR OVC005
     FM261500 35004KT P6SM SCT005 OVC012=



000
FTUS41 KRNK 251729
TAFBLF
TAF
KBLF 251729Z 2518/2618 13008G16KT 5SM -SHRA BR SCT012 OVC020
      TEMPO 2520/2523 SCT007 OVC012
     FM252300 23012KT 3SM -RADZ BR OVC005
      TEMPO 2605/2609 2SM TSRA BR SCT005 OVC012CB
     FM261500 33007KT P6SM BKN007 OVC012=



000
FTUS41 KRNK 251729
TAFROA
TAF
KROA 251729Z 2518/2618 11005KT 5SM -SHRA BR SCT015 OVC035
      TEMPO 2520/2523 SCT009 OVC015
     FM252300 09004KT 3SM -RADZ BR OVC007
     FM261500 36005KT P6SM SCT007 OVC015=



000
FTUS41 KRNK 251729
TAFLYH
TAF
KLYH 251729Z 2518/2618 05010KT 5SM -RA BR SCT015 OVC035
      TEMPO 2520/2523 SCT009 OVC015
     FM252300 04008KT 3SM -RADZ BR OVC006
     FM261500 02005KT P6SM SCT007 OVC015=



000
FTUS41 KRNK 251729
TAFDAN
TAF
KDAN 251729Z 2518/2618 07006KT P6SM -SHRA SCT015 OVC035
      TEMPO 2520/2523 SCT009 OVC015
     FM252300 03006KT 3SM -RADZ BR OVC006
      TEMPO 2606/2610 2SM TSRA BR OVC006CB
     FM261500 35006KT P6SM SCT007 OVC015=



000
FTUS41 KRNK 251729
TAFBLF
TAF
KBLF 251729Z 2518/2618 13008G16KT 5SM -SHRA BR SCT012 OVC020
      TEMPO 2520/2523 SCT007 OVC012
     FM252300 23012KT 3SM -RADZ BR OVC005
      TEMPO 2605/2609 2SM TSRA BR SCT005 OVC012CB
     FM261500 33007KT P6SM BKN007 OVC012=



000
FTUS41 KRNK 251729
TAFLYH
TAF
KLYH 251729Z 2518/2618 05010KT 5SM -RA BR SCT015 OVC035
      TEMPO 2520/2523 SCT009 OVC015
     FM252300 04008KT 3SM -RADZ BR OVC006
     FM261500 02005KT P6SM SCT007 OVC015=



000
FTUS41 KRNK 251729
TAFROA
TAF
KROA 251729Z 2518/2618 11005KT 5SM -SHRA BR SCT015 OVC035
      TEMPO 2520/2523 SCT009 OVC015
     FM252300 09004KT 3SM -RADZ BR OVC007
     FM261500 36005KT P6SM SCT007 OVC015=



000
FTUS41 KRNK 251729
TAFDAN
TAF
KDAN 251729Z 2518/2618 07006KT P6SM -SHRA SCT015 OVC035
      TEMPO 2520/2523 SCT009 OVC015
     FM252300 03006KT 3SM -RADZ BR OVC006
      TEMPO 2606/2610 2SM TSRA BR OVC006CB
     FM261500 35006KT P6SM SCT007 OVC015=



000
FTUS41 KRNK 251729
TAFLWB
TAF
KLWB 251729Z 2518/2618 VRB04KT P6SM -SHRA SCT012 OVC035
      TEMPO 2520/2523 5SM -RA BR SCT007 OVC012
     FM252300 VRB03KT 3SM -RADZ BR OVC005
     FM261500 35004KT P6SM SCT005 OVC012=



000
FTUS41 KRNK 251729
TAFLWB
TAF
KLWB 251729Z 2518/2618 VRB04KT P6SM -SHRA SCT012 OVC035
      TEMPO 2520/2523 5SM -RA BR SCT007 OVC012
     FM252300 VRB03KT 3SM -RADZ BR OVC005
     FM261500 35004KT P6SM SCT005 OVC012=



000
FTUS41 KRNK 251729
TAFBLF
TAF
KBLF 251729Z 2518/2618 13008G16KT 5SM -SHRA BR SCT012 OVC020
      TEMPO 2520/2523 SCT007 OVC012
     FM252300 23012KT 3SM -RADZ BR OVC005
      TEMPO 2605/2609 2SM TSRA BR SCT005 OVC012CB
     FM261500 33007KT P6SM BKN007 OVC012=



000
FTUS41 KRNK 251729
TAFBLF
TAF
KBLF 251729Z 2518/2618 13008G16KT 5SM -SHRA BR SCT012 OVC020
      TEMPO 2520/2523 SCT007 OVC012
     FM252300 23012KT 3SM -RADZ BR OVC005
      TEMPO 2605/2609 2SM TSRA BR SCT005 OVC012CB
     FM261500 33007KT P6SM BKN007 OVC012=



000
FTUS41 KRNK 251729
TAFROA
TAF
KROA 251729Z 2518/2618 11005KT 5SM -SHRA BR SCT015 OVC035
      TEMPO 2520/2523 SCT009 OVC015
     FM252300 09004KT 3SM -RADZ BR OVC007
     FM261500 36005KT P6SM SCT007 OVC015=



000
FTUS41 KRNK 251729
TAFDAN
TAF
KDAN 251729Z 2518/2618 07006KT P6SM -SHRA SCT015 OVC035
      TEMPO 2520/2523 SCT009 OVC015
     FM252300 03006KT 3SM -RADZ BR OVC006
      TEMPO 2606/2610 2SM TSRA BR OVC006CB
     FM261500 35006KT P6SM SCT007 OVC015=



000
FTUS41 KRNK 251729
TAFLWB
TAF
KLWB 251729Z 2518/2618 VRB04KT P6SM -SHRA SCT012 OVC035
      TEMPO 2520/2523 5SM -RA BR SCT007 OVC012
     FM252300 VRB03KT 3SM -RADZ BR OVC005
     FM261500 35004KT P6SM SCT005 OVC012=



000
FTUS41 KRNK 251729
TAFROA
TAF
KROA 251729Z 2518/2618 11005KT 5SM -SHRA BR SCT015 OVC035
      TEMPO 2520/2523 SCT009 OVC015
     FM252300 09004KT 3SM -RADZ BR OVC007
     FM261500 36005KT P6SM SCT007 OVC015=



000
FTUS41 KRNK 251729
TAFLYH
TAF
KLYH 251729Z 2518/2618 05010KT 5SM -RA BR SCT015 OVC035
      TEMPO 2520/2523 SCT009 OVC015
     FM252300 04008KT 3SM -RADZ BR OVC006
     FM261500 02005KT P6SM SCT007 OVC015=



000
FTUS41 KRNK 251139
TAFLWB
TAF
KLWB 251139Z 2512/2612 05004KT P6SM -RA OVC040
     FM251400 06005KT 5SM -RA BR OVC023
     FM251800 08006KT 4SM -RA BR SCT010 OVC018
     FM260100 VRB04KT 3SM -RADZ BR BKN007 OVC012
     FM260900 27006KT 2SM -DZ BR SCT007 OVC013=



000
FTUS41 KRNK 251139
TAFROA
TAF
KROA 251139Z 2512/2612 VRB03KT P6SM -RA OVC060
     FM251400 09004KT P6SM -RA OVC050
     FM251700 11005KT 5SM -RA BR OVC025
     FM252300 10005KT 5SM -RA SCT009 OVC015
     FM260400 10004KT 3SM -RADZ BR OVC007=



000
FTUS41 KRNK 251139
TAFLYH
TAF
KLYH 251139Z 2512/2612 VRB03KT P6SM -RA OVC090
     FM251400 06004KT P6SM -RA OVC060
     FM251700 08005KT 5SM -RA BR OVC025
     FM252200 08006KT 4SM -RA SCT007 OVC013
     FM260200 07007KT 2SM -RADZ BR OVC005=



000
FTUS41 KRNK 251139
TAFDAN
TAF
KDAN 251139Z 2512/2612 07006KT P6SM OVC090
     FM251400 07006KT P6SM -RA OVC060
     FM251900 07006KT P6SM -RA OVC035
     FM252300 06007KT 5SM -RA BR SCT009 OVC015
     FM260400 05007KT 4SM -RADZ BR OVC007=



000
FTUS41 KRNK 251139
TAFBLF
TAF
KBLF 251139Z 2512/2612 09004KT P6SM -RA OVC035
     FM251400 13007KT 5SM -RA BR OVC012
     FM251800 13009KT 4SM -RA BR OVC005
     FM260000 VRB06KT 3SM -RADZ BR OVC007
     FM260800 28006KT 1 1/2SM -RADZ BR OVC004=



000
FTUS41 KRNK 251139
TAFLWB
TAF
KLWB 251139Z 2512/2612 05004KT P6SM -RA OVC040
     FM251400 06005KT 5SM -RA BR OVC023
     FM251800 08006KT 4SM -RA BR SCT010 OVC018
     FM260100 VRB04KT 3SM -RADZ BR BKN007 OVC012
     FM260900 27006KT 2SM -DZ BR SCT007 OVC013=



000
FTUS41 KRNK 251139
TAFDAN
TAF
KDAN 251139Z 2512/2612 07006KT P6SM OVC090
     FM251400 07006KT P6SM -RA OVC060
     FM251900 07006KT P6SM -RA OVC035
     FM252300 06007KT 5SM -RA BR SCT009 OVC015
     FM260400 05007KT 4SM -RADZ BR OVC007=



000
FTUS41 KRNK 251139
TAFLWB
TAF
KLWB 251139Z 2512/2612 05004KT P6SM -RA OVC040
     FM251400 06005KT 5SM -RA BR OVC023
     FM251800 08006KT 4SM -RA BR SCT010 OVC018
     FM260100 VRB04KT 3SM -RADZ BR BKN007 OVC012
     FM260900 27006KT 2SM -DZ BR SCT007 OVC013=



000
FTUS41 KRNK 251139
TAFLYH
TAF
KLYH 251139Z 2512/2612 VRB03KT P6SM -RA OVC090
     FM251400 06004KT P6SM -RA OVC060
     FM251700 08005KT 5SM -RA BR OVC025
     FM252200 08006KT 4SM -RA SCT007 OVC013
     FM260200 07007KT 2SM -RADZ BR OVC005=



000
FTUS41 KRNK 251139
TAFDAN
TAF
KDAN 251139Z 2512/2612 07006KT P6SM OVC090
     FM251400 07006KT P6SM -RA OVC060
     FM251900 07006KT P6SM -RA OVC035
     FM252300 06007KT 5SM -RA BR SCT009 OVC015
     FM260400 05007KT 4SM -RADZ BR OVC007=



000
FTUS41 KRNK 251139
TAFBLF
TAF
KBLF 251139Z 2512/2612 09004KT P6SM -RA OVC035
     FM251400 13007KT 5SM -RA BR OVC012
     FM251800 13009KT 4SM -RA BR OVC005
     FM260000 VRB06KT 3SM -RADZ BR OVC007
     FM260800 28006KT 1 1/2SM -RADZ BR OVC004=



000
FTUS41 KRNK 251139
TAFROA
TAF
KROA 251139Z 2512/2612 VRB03KT P6SM -RA OVC060
     FM251400 09004KT P6SM -RA OVC050
     FM251700 11005KT 5SM -RA BR OVC025
     FM252300 10005KT 5SM -RA SCT009 OVC015
     FM260400 10004KT 3SM -RADZ BR OVC007=



000
FTUS41 KRNK 251139
TAFROA
TAF
KROA 251139Z 2512/2612 VRB03KT P6SM -RA OVC060
     FM251400 09004KT P6SM -RA OVC050
     FM251700 11005KT 5SM -RA BR OVC025
     FM252300 10005KT 5SM -RA SCT009 OVC015
     FM260400 10004KT 3SM -RADZ BR OVC007=



000
FTUS41 KRNK 251139
TAFBLF
TAF
KBLF 251139Z 2512/2612 09004KT P6SM -RA OVC035
     FM251400 13007KT 5SM -RA BR OVC012
     FM251800 13009KT 4SM -RA BR OVC005
     FM260000 VRB06KT 3SM -RADZ BR OVC007
     FM260800 28006KT 1 1/2SM -RADZ BR OVC004=



000
FTUS41 KRNK 251139
TAFLYH
TAF
KLYH 251139Z 2512/2612 VRB03KT P6SM -RA OVC090
     FM251400 06004KT P6SM -RA OVC060
     FM251700 08005KT 5SM -RA BR OVC025
     FM252200 08006KT 4SM -RA SCT007 OVC013
     FM260200 07007KT 2SM -RADZ BR OVC005=



000
FTUS41 KRNK 250540
TAFDAN
TAF
KDAN 250540Z 2506/2606 06004KT P6SM BKN120
     FM251500 05006KT P6SM -RA SCT030 OVC050
     FM251700 04006KT 5SM -RA OVC020
     FM252000 05005KT 4SM -RA OVC009
     FM260400 15005KT 2SM BR OVC003=



000
FTUS41 KRNK 250540
TAFDAN
TAF
KDAN 250540Z 2506/2606 06004KT P6SM BKN120
     FM251500 05006KT P6SM -RA SCT030 OVC050
     FM251700 04006KT 5SM -RA OVC020
     FM252000 05005KT 4SM -RA OVC009
     FM260400 15005KT 2SM BR OVC003=



000
FTUS41 KRNK 250540
TAFLYH
TAF
KLYH 250540Z 2506/2606 00000KT P6SM BKN120
     FM251600 12004KT P6SM -RA SCT030 OVC050
     FM251800 04007KT 5SM -RA OVC020
     FM252100 VRB03KT 2SM -RA OVC009
     FM260400 07005KT 2SM -DZ BR OVC003=



000
FTUS41 KRNK 250540
TAFLYH
TAF
KLYH 250540Z 2506/2606 00000KT P6SM BKN120
     FM251600 12004KT P6SM -RA SCT030 OVC050
     FM251800 04007KT 5SM -RA OVC020
     FM252100 VRB03KT 2SM -RA OVC009
     FM260400 07005KT 2SM -DZ BR OVC003=



000
FTUS41 KRNK 250540
TAFROA
TAF
KROA 250540Z 2506/2606 33003KT P6SM BKN120
     FM251400 13004KT P6SM -RA SCT028 OVC050
     FM251600 10005KT 6SM -RA BKN025
     FM251800 10004KT 5SM -RA OVC009
     FM260000 10004KT 2SM -RA BR OVC007=



000
FTUS41 KRNK 250540
TAFROA
TAF
KROA 250540Z 2506/2606 33003KT P6SM BKN120
     FM251400 13004KT P6SM -RA SCT028 OVC050
     FM251600 10005KT 6SM -RA BKN025
     FM251800 10004KT 5SM -RA OVC009
     FM260000 10004KT 2SM -RA BR OVC007=



000
FTUS41 KRNK 250540
TAFLWB
TAF
KLWB 250540Z 2506/2606 00000KT P6SM BKN120
     FM251200 14003KT P6SM -RA OVC060
     FM251600 12003KT 5SM -RA OVC030
     FM251800 09004KT 4SM RA BR OVC009
     FM260200 14003KT 1SM -RA BR OVC004=



000
FTUS41 KRNK 250540
TAFLWB
TAF
KLWB 250540Z 2506/2606 00000KT P6SM BKN120
     FM251200 14003KT P6SM -RA OVC060
     FM251600 12003KT 5SM -RA OVC030
     FM251800 09004KT 4SM RA BR OVC009
     FM260200 14003KT 1SM -RA BR OVC004=



000
FTUS41 KRNK 250540
TAFBLF
TAF
KBLF 250540Z 2506/2606 00000KT P6SM BKN120
     FM251300 15005KT P6SM -RA OVC035
     FM251600 18010KT 5SM RA BR OVC012
     FM251800 18009KT 6SM -RA OVC009
     FM260000 25012KT 4SM -DZ BR OVC007=



000
FTUS41 KRNK 250540
TAFBLF
TAF
KBLF 250540Z 2506/2606 00000KT P6SM BKN120
     FM251300 15005KT P6SM -RA OVC035
     FM251600 18010KT 5SM RA BR OVC012
     FM251800 18009KT 6SM -RA OVC009
     FM260000 25012KT 4SM -DZ BR OVC007=



000
FTUS41 KRNK 242321
TAFLWB
TAF
KLWB 242321Z 2500/2524 29005KT P6SM SCT100 BKN250
     FM251400 14003KT P6SM -RA OVC040
     FM251800 14005KT 4SM RA BR OVC012
     FM252100 35004KT 6SM -RA BR OVC025=



000
FTUS41 KRNK 242321
TAFBLF
TAF
KBLF 242321Z 2500/2524 29005KT P6SM SCT100 BKN250
     FM250600 19004KT P6SM OVC100
     FM251300 15005KT P6SM -RA OVC040
     FM251700 18010KT 5SM RA BR OVC012
     FM252100 12006KT 6SM -RA OVC025=



000
FTUS41 KRNK 242321
TAFDAN
TAF
KDAN 242321Z 2500/2524 31004KT P6SM SCT100 BKN250
     FM250600 08003KT P6SM OVC100
     FM251500 05006KT P6SM -RA SCT030 OVC060
     FM251800 04006KT 5SM -RA OVC020=



000
FTUS41 KRNK 242321
TAFBLF
TAF
KBLF 242321Z 2500/2524 29005KT P6SM SCT100 BKN250
     FM250600 19004KT P6SM OVC100
     FM251300 15005KT P6SM -RA OVC040
     FM251700 18010KT 5SM RA BR OVC012
     FM252100 12006KT 6SM -RA OVC025=



000
FTUS41 KRNK 242321
TAFLWB
TAF
KLWB 242321Z 2500/2524 29005KT P6SM SCT100 BKN250
     FM251400 14003KT P6SM -RA OVC040
     FM251800 14005KT 4SM RA BR OVC012
     FM252100 35004KT 6SM -RA BR OVC025=



000
FTUS41 KRNK 242321
TAFROA
TAF
KROA 242321Z 2500/2524 30004KT P6SM SCT100 BKN250
     FM251500 13004KT P6SM -RA SCT020 OVC050
     FM251800 12007KT 5SM -RA OVC020=



000
FTUS41 KRNK 242321
TAFROA
TAF
KROA 242321Z 2500/2524 30004KT P6SM SCT100 BKN250
     FM251500 13004KT P6SM -RA SCT020 OVC050
     FM251800 12007KT 5SM -RA OVC020=



000
FTUS41 KRNK 242321
TAFLYH
TAF
KLYH 242321Z 2500/2524 VRB02KT P6SM SCT100 BKN250
     FM251800 12004KT P6SM -RA SCT030 OVC070
     FM252100 04007KT 5SM -RA OVC020=



000
FTUS41 KRNK 242321
TAFDAN
TAF
KDAN 242321Z 2500/2524 31004KT P6SM SCT100 BKN250
     FM250600 08003KT P6SM OVC100
     FM251500 05006KT P6SM -RA SCT030 OVC060
     FM251800 04006KT 5SM -RA OVC020=



000
FTUS41 KRNK 242321
TAFLWB
TAF
KLWB 242321Z 2500/2524 29005KT P6SM SCT100 BKN250
     FM251400 14003KT P6SM -RA OVC040
     FM251800 14005KT 4SM RA BR OVC012
     FM252100 35004KT 6SM -RA BR OVC025=



000
FTUS41 KRNK 242321
TAFBLF
TAF
KBLF 242321Z 2500/2524 29005KT P6SM SCT100 BKN250
     FM250600 19004KT P6SM OVC100
     FM251300 15005KT P6SM -RA OVC040
     FM251700 18010KT 5SM RA BR OVC012
     FM252100 12006KT 6SM -RA OVC025=



000
FTUS41 KRNK 242321
TAFDAN
TAF
KDAN 242321Z 2500/2524 31004KT P6SM SCT100 BKN250
     FM250600 08003KT P6SM OVC100
     FM251500 05006KT P6SM -RA SCT030 OVC060
     FM251800 04006KT 5SM -RA OVC020=



000
FTUS41 KRNK 242321
TAFBLF
TAF
KBLF 242321Z 2500/2524 29005KT P6SM SCT100 BKN250
     FM250600 19004KT P6SM OVC100
     FM251300 15005KT P6SM -RA OVC040
     FM251700 18010KT 5SM RA BR OVC012
     FM252100 12006KT 6SM -RA OVC025=



000
FTUS41 KRNK 242321
TAFLYH
TAF
KLYH 242321Z 2500/2524 VRB02KT P6SM SCT100 BKN250
     FM251800 12004KT P6SM -RA SCT030 OVC070
     FM252100 04007KT 5SM -RA OVC020=



000
FTUS41 KRNK 242321
TAFLWB
TAF
KLWB 242321Z 2500/2524 29005KT P6SM SCT100 BKN250
     FM251400 14003KT P6SM -RA OVC040
     FM251800 14005KT 4SM RA BR OVC012
     FM252100 35004KT 6SM -RA BR OVC025=



000
FTUS41 KRNK 242321
TAFROA
TAF
KROA 242321Z 2500/2524 30004KT P6SM SCT100 BKN250
     FM251500 13004KT P6SM -RA SCT020 OVC050
     FM251800 12007KT 5SM -RA OVC020=



000
FTUS41 KRNK 242321
TAFLYH
TAF
KLYH 242321Z 2500/2524 VRB02KT P6SM SCT100 BKN250
     FM251800 12004KT P6SM -RA SCT030 OVC070
     FM252100 04007KT 5SM -RA OVC020=



000
FTUS41 KRNK 242321
TAFROA
TAF
KROA 242321Z 2500/2524 30004KT P6SM SCT100 BKN250
     FM251500 13004KT P6SM -RA SCT020 OVC050
     FM251800 12007KT 5SM -RA OVC020=



000
FTUS41 KRNK 242321
TAFLYH
TAF
KLYH 242321Z 2500/2524 VRB02KT P6SM SCT100 BKN250
     FM251800 12004KT P6SM -RA SCT030 OVC070
     FM252100 04007KT 5SM -RA OVC020=



000
FTUS41 KRNK 242321
TAFDAN
TAF
KDAN 242321Z 2500/2524 31004KT P6SM SCT100 BKN250
     FM250600 08003KT P6SM OVC100
     FM251500 05006KT P6SM -RA SCT030 OVC060
     FM251800 04006KT 5SM -RA OVC020=



000
FTUS41 KRNK 241731
TAFROA
TAF
KROA 241731Z 2418/2518 28014G19KT P6SM FEW250
     FM242300 30004KT P6SM SCT100 BKN250
     FM251500 13004KT P6SM -RA SCT020 OVC050=



000
FTUS41 KRNK 241731
TAFBLF
TAF
KBLF 241731Z 2418/2518 30009G15KT P6SM SKC
     FM242100 29006KT P6SM SCT250
     FM250600 15003KT P6SM OVC070
     FM251300 15005KT P6SM -RA OVC035
     FM251600 15006KT 5SM RA BR OVC012=



000
FTUS41 KRNK 241731
TAFLYH
TAF
KLYH 241731Z 2418/2518 28007KT P6SM SKC
     FM250900 00000KT P6SM OVC100
     FM251500 13005KT P6SM -RA SCT030 OVC070=



000
FTUS41 KRNK 241731
TAFDAN
TAF
KDAN 241731Z 2418/2518 30008KT P6SM SKC
     FM242200 30004KT P6SM SCT250
     FM250900 00000KT P6SM OVC100
     FM251500 12004KT P6SM -RA SCT030 OVC060=



000
FTUS41 KRNK 241731
TAFROA
TAF
KROA 241731Z 2418/2518 28014G19KT P6SM FEW250
     FM242300 30004KT P6SM SCT100 BKN250
     FM251500 13004KT P6SM -RA SCT020 OVC050=



000
FTUS41 KRNK 241731
TAFLWB
TAF
KLWB 241731Z 2418/2518 30008G18KT P6SM SKC
     FM242200 30003KT P6SM SCT250
     FM250700 00000KT P6SM OVC090
     FM251400 14003KT P6SM -RA OVC040
     FM251700 14005KT 4SM RA BR OVC012=



000
FTUS41 KRNK 241731
TAFDAN
TAF
KDAN 241731Z 2418/2518 30008KT P6SM SKC
     FM242200 30004KT P6SM SCT250
     FM250900 00000KT P6SM OVC100
     FM251500 12004KT P6SM -RA SCT030 OVC060=



000
FTUS41 KRNK 241731
TAFLYH
TAF
KLYH 241731Z 2418/2518 28007KT P6SM SKC
     FM250900 00000KT P6SM OVC100
     FM251500 13005KT P6SM -RA SCT030 OVC070=



000
FTUS41 KRNK 241731
TAFBLF
TAF
KBLF 241731Z 2418/2518 30009G15KT P6SM SKC
     FM242100 29006KT P6SM SCT250
     FM250600 15003KT P6SM OVC070
     FM251300 15005KT P6SM -RA OVC035
     FM251600 15006KT 5SM RA BR OVC012=



000
FTUS41 KRNK 241731
TAFLWB
TAF
KLWB 241731Z 2418/2518 30008G18KT P6SM SKC
     FM242200 30003KT P6SM SCT250
     FM250700 00000KT P6SM OVC090
     FM251400 14003KT P6SM -RA OVC040
     FM251700 14005KT 4SM RA BR OVC012=



000
FTUS41 KRNK 241731
TAFROA
TAF
KROA 241731Z 2418/2518 28014G19KT P6SM FEW250
     FM242300 30004KT P6SM SCT100 BKN250
     FM251500 13004KT P6SM -RA SCT020 OVC050=



000
FTUS41 KRNK 241731
TAFLYH
TAF
KLYH 241731Z 2418/2518 28007KT P6SM SKC
     FM250900 00000KT P6SM OVC100
     FM251500 13005KT P6SM -RA SCT030 OVC070=



000
FTUS41 KRNK 241731
TAFBLF
TAF
KBLF 241731Z 2418/2518 30009G15KT P6SM SKC
     FM242100 29006KT P6SM SCT250
     FM250600 15003KT P6SM OVC070
     FM251300 15005KT P6SM -RA OVC035
     FM251600 15006KT 5SM RA BR OVC012=



000
FTUS41 KRNK 241731
TAFDAN
TAF
KDAN 241731Z 2418/2518 30008KT P6SM SKC
     FM242200 30004KT P6SM SCT250
     FM250900 00000KT P6SM OVC100
     FM251500 12004KT P6SM -RA SCT030 OVC060=



000
FTUS41 KRNK 241731
TAFLWB
TAF
KLWB 241731Z 2418/2518 30008G18KT P6SM SKC
     FM242200 30003KT P6SM SCT250
     FM250700 00000KT P6SM OVC090
     FM251400 14003KT P6SM -RA OVC040
     FM251700 14005KT 4SM RA BR OVC012=



000
FTUS41 KRNK 241136
TAFDAN
TAF
KDAN 241136Z 2412/2512 32006KT P6SM SKC
     FM241400 31012G22KT P6SM SKC
     FM242000 30007KT P6SM SCT250
     FM250200 VRB03KT P6SM BKN250=



000
FTUS41 KRNK 241136
TAFBLF
TAF
KBLF 241136Z 2412/2512 31007KT P6SM SKC
     FM241400 29009G17KT P6SM SCT250
     FM241800 28008G16KT P6SM BKN250
     FM242300 28006KT P6SM SCT100 BKN250
     FM250600 VRB04KT P6SM BKN070 OVC200
     FM251000 14005KT P6SM BKN045 OVC070=



000
FTUS41 KRNK 241136
TAFLYH
TAF
KLYH 241136Z 2412/2512 30005KT P6SM SKC
     FM241400 29010G20KT P6SM SKC
     FM242200 29006KT P6SM SCT250
     FM250100 00000KT P6SM BKN250=



000
FTUS41 KRNK 241136
TAFLWB
TAF
KLWB 241136Z 2412/2512 30005KT P6SM SKC
     FM241400 29008G16KT P6SM SCT250
     FM241900 28007KT P6SM BKN250
     FM242300 VRB03KT P6SM SCT100 BKN250
     FM250800 05004KT P6SM BKN090 OVC200=



000
FTUS41 KRNK 241136
TAFROA
TAF
KROA 241136Z 2412/2512 32014G24KT P6SM SKC
     FM241800 31012G20KT P6SM SCT250
     FM242300 30004KT P6SM BKN250
     FM250800 VRB04KT P6SM BKN100 OVC200=



000
FTUS41 KRNK 241136
TAFBLF
TAF
KBLF 241136Z 2412/2512 31007KT P6SM SKC
     FM241400 29009G17KT P6SM SCT250
     FM241800 28008G16KT P6SM BKN250
     FM242300 28006KT P6SM SCT100 BKN250
     FM250600 VRB04KT P6SM BKN070 OVC200
     FM251000 14005KT P6SM BKN045 OVC070=



000
FTUS41 KRNK 241136
TAFDAN
TAF
KDAN 241136Z 2412/2512 32006KT P6SM SKC
     FM241400 31012G22KT P6SM SKC
     FM242000 30007KT P6SM SCT250
     FM250200 VRB03KT P6SM BKN250=



000
FTUS41 KRNK 241136
TAFLWB
TAF
KLWB 241136Z 2412/2512 30005KT P6SM SKC
     FM241400 29008G16KT P6SM SCT250
     FM241900 28007KT P6SM BKN250
     FM242300 VRB03KT P6SM SCT100 BKN250
     FM250800 05004KT P6SM BKN090 OVC200=



000
FTUS41 KRNK 241136
TAFROA
TAF
KROA 241136Z 2412/2512 32014G24KT P6SM SKC
     FM241800 31012G20KT P6SM SCT250
     FM242300 30004KT P6SM BKN250
     FM250800 VRB04KT P6SM BKN100 OVC200=



000
FTUS41 KRNK 241136
TAFLYH
TAF
KLYH 241136Z 2412/2512 30005KT P6SM SKC
     FM241400 29010G20KT P6SM SKC
     FM242200 29006KT P6SM SCT250
     FM250100 00000KT P6SM BKN250=



000
FTUS41 KRNK 240521
TAFROA
TAF
KROA 240521Z 2406/2506 31006KT P6SM SKC
     FM241400 30010G18KT P6SM FEW250
     FM250000 30004KT P6SM SCT100 OVC250=



000
FTUS41 KRNK 240521
TAFBLF
TAF
KBLF 240521Z 2406/2506 30007KT P6SM SKC
     FM241400 29009KT P6SM FEW250
     FM250000 23004KT P6SM SCT080 OVC250=



000
FTUS41 KRNK 240521
TAFLWB
TAF
KLWB 240521Z 2406/2506 32008KT P6SM SKC
     FM241400 29008G15KT P6SM FEW250
     FM250000 VRB02KT P6SM SCT100 OVC250=



000
FTUS41 KRNK 240521
TAFDAN
TAF
KDAN 240521Z 2406/2506 30005KT P6SM SKC
     FM241400 29008G15KT P6SM FEW250
     FM250000 VRB03KT P6SM BKN250=



000
FTUS41 KRNK 240521
TAFLYH
TAF
KLYH 240521Z 2406/2506 30004KT P6SM SKC
     FM241500 29008G15KT P6SM FEW250
     FM250000 00000KT P6SM OVC250=



000
FTUS41 KRNK 240521
TAFROA
TAF
KROA 240521Z 2406/2506 31006KT P6SM SKC
     FM241400 30010G18KT P6SM FEW250
     FM250000 30004KT P6SM SCT100 OVC250=



000
FTUS41 KRNK 240521
TAFLYH
TAF
KLYH 240521Z 2406/2506 30004KT P6SM SKC
     FM241500 29008G15KT P6SM FEW250
     FM250000 00000KT P6SM OVC250=



000
FTUS41 KRNK 240521
TAFBLF
TAF
KBLF 240521Z 2406/2506 30007KT P6SM SKC
     FM241400 29009KT P6SM FEW250
     FM250000 23004KT P6SM SCT080 OVC250=



000
FTUS41 KRNK 240521
TAFDAN
TAF
KDAN 240521Z 2406/2506 30005KT P6SM SKC
     FM241400 29008G15KT P6SM FEW250
     FM250000 VRB03KT P6SM BKN250=



000
FTUS41 KRNK 240521
TAFLWB
TAF
KLWB 240521Z 2406/2506 32008KT P6SM SKC
     FM241400 29008G15KT P6SM FEW250
     FM250000 VRB02KT P6SM SCT100 OVC250=



000
FTUS41 KRNK 240521
TAFLYH
TAF
KLYH 240521Z 2406/2506 30004KT P6SM SKC
     FM241500 29008G15KT P6SM FEW250
     FM250000 00000KT P6SM OVC250=



000
FTUS41 KRNK 240521
TAFROA
TAF
KROA 240521Z 2406/2506 31006KT P6SM SKC
     FM241400 30010G18KT P6SM FEW250
     FM250000 30004KT P6SM SCT100 OVC250=



000
FTUS41 KRNK 240521
TAFBLF
TAF
KBLF 240521Z 2406/2506 30007KT P6SM SKC
     FM241400 29009KT P6SM FEW250
     FM250000 23004KT P6SM SCT080 OVC250=



000
FTUS41 KRNK 240521
TAFLWB
TAF
KLWB 240521Z 2406/2506 32008KT P6SM SKC
     FM241400 29008G15KT P6SM FEW250
     FM250000 VRB02KT P6SM SCT100 OVC250=



000
FTUS41 KRNK 240521
TAFDAN
TAF
KDAN 240521Z 2406/2506 30005KT P6SM SKC
     FM241400 29008G15KT P6SM FEW250
     FM250000 VRB03KT P6SM BKN250=



000
FTUS41 KRNK 232328
TAFBLF
TAF
KBLF 232328Z 2400/2424 29010KT P6SM SKC=



000
FTUS41 KRNK 232328
TAFLYH
TAF
KLYH 232328Z 2400/2424 27006KT P6SM SKC
     FM240400 VRB03KT P6SM SKC
     FM241500 29007KT P6SM SKC=



000
FTUS41 KRNK 232328
TAFDAN
TAF
KDAN 232328Z 2400/2424 28006KT P6SM SKC
     FM241400 30010KT P6SM SKC=



000
FTUS41 KRNK 232328
TAFROA
TAF
KROA 232328Z 2400/2424 30014G22KT P6SM SKC
     FM240200 29012KT P6SM SKC=



000
FTUS41 KRNK 232328
TAFLWB
TAF
KLWB 232328Z 2400/2424 31008KT P6SM SKC
     FM240500 VRB03KT P6SM SKC
     FM241500 29008KT P6SM SKC=



000
FTUS41 KRNK 232328
TAFDAN
TAF
KDAN 232328Z 2400/2424 28006KT P6SM SKC
     FM241400 30010KT P6SM SKC=



000
FTUS41 KRNK 232328
TAFROA
TAF
KROA 232328Z 2400/2424 30014G22KT P6SM SKC
     FM240200 29012KT P6SM SKC=



000
FTUS41 KRNK 232328
TAFLYH
TAF
KLYH 232328Z 2400/2424 27006KT P6SM SKC
     FM240400 VRB03KT P6SM SKC
     FM241500 29007KT P6SM SKC=



000
FTUS41 KRNK 232328
TAFLWB
TAF
KLWB 232328Z 2400/2424 31008KT P6SM SKC
     FM240500 VRB03KT P6SM SKC
     FM241500 29008KT P6SM SKC=



000
FTUS41 KRNK 232328
TAFBLF
TAF
KBLF 232328Z 2400/2424 29010KT P6SM SKC=



000
FTUS41 KRNK 232328
TAFLYH
TAF
KLYH 232328Z 2400/2424 27006KT P6SM SKC
     FM240400 VRB03KT P6SM SKC
     FM241500 29007KT P6SM SKC=



000
FTUS41 KRNK 232328
TAFDAN
TAF
KDAN 232328Z 2400/2424 28006KT P6SM SKC
     FM241400 30010KT P6SM SKC=



000
FTUS41 KRNK 232328
TAFROA
TAF
KROA 232328Z 2400/2424 30014G22KT P6SM SKC
     FM240200 29012KT P6SM SKC=



000
FTUS41 KRNK 232328
TAFBLF
TAF
KBLF 232328Z 2400/2424 29010KT P6SM SKC=



000
FTUS41 KRNK 232328
TAFROA
TAF
KROA 232328Z 2400/2424 30014G22KT P6SM SKC
     FM240200 29012KT P6SM SKC=



000
FTUS41 KRNK 232328
TAFLYH
TAF
KLYH 232328Z 2400/2424 27006KT P6SM SKC
     FM240400 VRB03KT P6SM SKC
     FM241500 29007KT P6SM SKC=



000
FTUS41 KRNK 232328
TAFLWB
TAF
KLWB 232328Z 2400/2424 31008KT P6SM SKC
     FM240500 VRB03KT P6SM SKC
     FM241500 29008KT P6SM SKC=



000
FTUS41 KRNK 232328
TAFDAN
TAF
KDAN 232328Z 2400/2424 28006KT P6SM SKC
     FM241400 30010KT P6SM SKC=



000
FTUS41 KRNK 232328
TAFBLF
TAF
KBLF 232328Z 2400/2424 29010KT P6SM SKC=



000
FTUS41 KRNK 232328
TAFLWB
TAF
KLWB 232328Z 2400/2424 31008KT P6SM SKC
     FM240500 VRB03KT P6SM SKC
     FM241500 29008KT P6SM SKC=



000
FTUS41 KRNK 231731
TAFBLF
TAF
KBLF 231731Z 2318/2418 30015G25KT P6SM SKC
     FM232300 28008KT P6SM SKC
     FM241500 30010KT P6SM SKC=



000
FTUS41 KRNK 231731
TAFLYH
TAF
KLYH 231731Z 2318/2418 29010G20KT P6SM SKC
     FM232200 26006KT P6SM SKC
     FM240100 VRB03KT P6SM SKC
     FM241500 29006KT P6SM SKC=



000
FTUS41 KRNK 231731
TAFDAN
TAF
KDAN 231731Z 2318/2418 29012G22KT P6SM SKC
     FM232300 26006KT P6SM SKC
     FM241400 30010KT P6SM SKC=



000
FTUS41 KRNK 231731
TAFDAN
TAF
KDAN 231731Z 2318/2418 29012G22KT P6SM SKC
     FM232300 26006KT P6SM SKC
     FM241400 30010KT P6SM SKC=



000
FTUS41 KRNK 231731
TAFLWB
TAF
KLWB 231731Z 2318/2418 28012G22KT P6SM SKC
     FM232200 31006KT P6SM SKC
     FM240100 VRB03KT P6SM SKC
     FM241500 29006KT P6SM SKC=



000
FTUS41 KRNK 231731
TAFROA
TAF
KROA 231731Z 2318/2418 30015G28KT P6SM SKC
     FM240000 29012KT P6SM SKC
     FM241400 31008KT P6SM SKC=



000
FTUS41 KRNK 231731
TAFBLF
TAF
KBLF 231731Z 2318/2418 30015G25KT P6SM SKC
     FM232300 28008KT P6SM SKC
     FM241500 30010KT P6SM SKC=



000
FTUS41 KRNK 231731
TAFROA
TAF
KROA 231731Z 2318/2418 30015G28KT P6SM SKC
     FM240000 29012KT P6SM SKC
     FM241400 31008KT P6SM SKC=



000
FTUS41 KRNK 231731
TAFLYH
TAF
KLYH 231731Z 2318/2418 29010G20KT P6SM SKC
     FM232200 26006KT P6SM SKC
     FM240100 VRB03KT P6SM SKC
     FM241500 29006KT P6SM SKC=



000
FTUS41 KRNK 231731
TAFLWB
TAF
KLWB 231731Z 2318/2418 28012G22KT P6SM SKC
     FM232200 31006KT P6SM SKC
     FM240100 VRB03KT P6SM SKC
     FM241500 29006KT P6SM SKC=



000
FTUS41 KRNK 231142 CCA
TAFLWB
TAF COR
KLWB 231142Z 2312/2412 26006KT P6SM SCT060
     FM231430 27014G24KT P6SM SKC
     FM240000 29006KT P6SM SCT250=



000
FTUS41 KRNK 231142 CCA
TAFLWB
TAF COR
KLWB 231142Z 2312/2412 26006KT P6SM SCT060
     FM231430 27014G24KT P6SM SKC
     FM240000 29006KT P6SM SCT250=



000
FTUS41 KRNK 231142 CCA
TAFLWB
TAF COR
KLWB 231142Z 2312/2412 26006KT P6SM SCT060
     FM231430 27014G24KT P6SM SKC
     FM240000 29006KT P6SM SCT250=



000
FTUS41 KRNK 231140
TAFBLF
TAF
KBLF 231140Z 2312/2412 28010G16KT P6SM SKC
     FM231400 29017G30KT P6SM SKC
     FM240000 30010G20KT P6SM SKC=



000
FTUS41 KRNK 231140
TAFDAN
TAF
KDAN 231140Z 2312/2412 30008KT P6SM SKC
     FM231400 29015G25KT P6SM SKC
     FM240000 30007KT P6SM SKC=



000
FTUS41 KRNK 231140
TAFROA
TAF
KROA 231140Z 2312/2412 29012G22KT P6SM FEW070
     FM231430 29016G31KT P6SM SKC
     FM240000 29015G25KT P6SM SKC
     FM240400 30010G20KT P6SM SKC=



000
FTUS41 KRNK 231140
TAFLWB
TAF
KLWB 231140Z 2312/2412 26006KT P6SM SKC
     FM231430 27014G24KT P6SM SKC
     FM240000 29006KT P6SM SCT250=



000
FTUS41 KRNK 231140
TAFLYH
TAF
KLYH 231140Z 2312/2412 25006KT P6SM SKC
     FM231400 27012G22KT P6SM SKC
     FM240100 29005KT P6SM SKC=



000
FTUS41 KRNK 231140
TAFLYH
TAF
KLYH 231140Z 2312/2412 25006KT P6SM SKC
     FM231400 27012G22KT P6SM SKC
     FM240100 29005KT P6SM SKC=



000
FTUS41 KRNK 231140
TAFLYH
TAF
KLYH 231140Z 2312/2412 25006KT P6SM SKC
     FM231400 27012G22KT P6SM SKC
     FM240100 29005KT P6SM SKC=



000
FTUS41 KRNK 231140
TAFDAN
TAF
KDAN 231140Z 2312/2412 30008KT P6SM SKC
     FM231400 29015G25KT P6SM SKC
     FM240000 30007KT P6SM SKC=



000
FTUS41 KRNK 231140
TAFBLF
TAF
KBLF 231140Z 2312/2412 28010G16KT P6SM SKC
     FM231400 29017G30KT P6SM SKC
     FM240000 30010G20KT P6SM SKC=



000
FTUS41 KRNK 231140
TAFROA
TAF
KROA 231140Z 2312/2412 29012G22KT P6SM FEW070
     FM231430 29016G31KT P6SM SKC
     FM240000 29015G25KT P6SM SKC
     FM240400 30010G20KT P6SM SKC=



000
FTUS41 KRNK 231140
TAFROA
TAF
KROA 231140Z 2312/2412 29012G22KT P6SM FEW070
     FM231430 29016G31KT P6SM SKC
     FM240000 29015G25KT P6SM SKC
     FM240400 30010G20KT P6SM SKC=



000
FTUS41 KRNK 231140
TAFLWB
TAF
KLWB 231140Z 2312/2412 26006KT P6SM SKC
     FM231430 27014G24KT P6SM SKC
     FM240000 29006KT P6SM SCT250=



000
FTUS41 KRNK 231140
TAFLWB
TAF
KLWB 231140Z 2312/2412 26006KT P6SM SKC
     FM231430 27014G24KT P6SM SKC
     FM240000 29006KT P6SM SCT250=



000
FTUS41 KRNK 231140
TAFBLF
TAF
KBLF 231140Z 2312/2412 28010G16KT P6SM SKC
     FM231400 29017G30KT P6SM SKC
     FM240000 30010G20KT P6SM SKC=



000
FTUS41 KRNK 231140
TAFDAN
TAF
KDAN 231140Z 2312/2412 30008KT P6SM SKC
     FM231400 29015G25KT P6SM SKC
     FM240000 30007KT P6SM SKC=



000
FTUS41 KRNK 231140
TAFLWB
TAF
KLWB 231140Z 2312/2412 26006KT P6SM SKC
     FM231430 27014G24KT P6SM SKC
     FM240000 29006KT P6SM SCT250=



000
FTUS41 KRNK 231140
TAFLYH
TAF
KLYH 231140Z 2312/2412 25006KT P6SM SKC
     FM231400 27012G22KT P6SM SKC
     FM240100 29005KT P6SM SKC=



000
FTUS41 KRNK 231140
TAFDAN
TAF
KDAN 231140Z 2312/2412 30008KT P6SM SKC
     FM231400 29015G25KT P6SM SKC
     FM240000 30007KT P6SM SKC=



000
FTUS41 KRNK 231140
TAFBLF
TAF
KBLF 231140Z 2312/2412 28010G16KT P6SM SKC
     FM231400 29017G30KT P6SM SKC
     FM240000 30010G20KT P6SM SKC=



000
FTUS41 KRNK 231140
TAFROA
TAF
KROA 231140Z 2312/2412 29012G22KT P6SM FEW070
     FM231430 29016G31KT P6SM SKC
     FM240000 29015G25KT P6SM SKC
     FM240400 30010G20KT P6SM SKC=



000
FTUS41 KRNK 231024 AAA
TAFLWB
TAF AMD
KLWB 231024Z 2310/2406 27006KT P6SM SKC
     FM231400 28015G26KT P6SM SKC
     FM240000 31010G17KT P6SM SCT250=



000
FTUS41 KRNK 231024 AAA
TAFLWB
TAF AMD
KLWB 231024Z 2310/2406 27006KT P6SM SKC
     FM231400 28015G26KT P6SM SKC
     FM240000 31010G17KT P6SM SCT250=



000
FTUS41 KRNK 231024 AAA
TAFLWB
TAF AMD
KLWB 231024Z 2310/2406 27006KT P6SM SKC
     FM231400 28015G26KT P6SM SKC
     FM240000 31010G17KT P6SM SCT250=



000
FTUS41 KRNK 231024 AAA
TAFLWB
TAF AMD
KLWB 231024Z 2310/2406 27006KT P6SM SKC
     FM231400 28015G26KT P6SM SKC
     FM240000 31010G17KT P6SM SCT250=



000
FTUS41 KRNK 231023 AAA
TAFBLF
TAF AMD
KBLF 231023Z 2310/2406 28010G16KT P6SM SKC
     FM231400 29018G27KT P6SM SKC
     FM240000 30010G20KT P6SM SKC=



000
FTUS41 KRNK 231023 AAA
TAFBLF
TAF AMD
KBLF 231023Z 2310/2406 28010G16KT P6SM SKC
     FM231400 29018G27KT P6SM SKC
     FM240000 30010G20KT P6SM SKC=



000
FTUS41 KRNK 231023 AAA
TAFBLF
TAF AMD
KBLF 231023Z 2310/2406 28010G16KT P6SM SKC
     FM231400 29018G27KT P6SM SKC
     FM240000 30010G20KT P6SM SKC=



000
FTUS41 KRNK 231023 AAA
TAFBLF
TAF AMD
KBLF 231023Z 2310/2406 28010G16KT P6SM SKC
     FM231400 29018G27KT P6SM SKC
     FM240000 30010G20KT P6SM SKC=



000
FTUS41 KRNK 231023 AAA
TAFROA
TAF AMD
KROA 231023Z 2310/2406 33010KT P6SM SKC
     FM231400 28022G30KT P6SM SKC
     FM240000 29015G25KT P6SM SKC
     FM240400 30010G20KT P6SM SKC=



000
FTUS41 KRNK 231023 AAA
TAFROA
TAF AMD
KROA 231023Z 2310/2406 33010KT P6SM SKC
     FM231400 28022G30KT P6SM SKC
     FM240000 29015G25KT P6SM SKC
     FM240400 30010G20KT P6SM SKC=



000
FTUS41 KRNK 231023 AAA
TAFROA
TAF AMD
KROA 231023Z 2310/2406 33010KT P6SM SKC
     FM231400 28022G30KT P6SM SKC
     FM240000 29015G25KT P6SM SKC
     FM240400 30010G20KT P6SM SKC=



000
FTUS41 KRNK 231023 AAA
TAFROA
TAF AMD
KROA 231023Z 2310/2406 33010KT P6SM SKC
     FM231400 28022G30KT P6SM SKC
     FM240000 29015G25KT P6SM SKC
     FM240400 30010G20KT P6SM SKC=



000
FTUS41 KRNK 230539
TAFDAN
TAF
KDAN 230539Z 2306/2406 35010KT P6SM SKC
     FM231500 27017G28KT P6SM SKC
     FM240000 30007KT P6SM SKC=



000
FTUS41 KRNK 230539
TAFLYH
TAF
KLYH 230539Z 2306/2406 34006KT P6SM SKC
     FM231500 27012G22KT P6SM SKC
     FM240000 30005KT P6SM SKC=



000
FTUS41 KRNK 230539
TAFBLF
TAF
KBLF 230539Z 2306/2406 31010G18KT P6SM SKC
     FM231400 29018G27KT P6SM SKC
     FM240000 30010G20KT P6SM SKC=



000
FTUS41 KRNK 230539
TAFROA
TAF
KROA 230539Z 2306/2406 33015G22KT P6SM SKC
     FM231400 28022G30KT P6SM SKC
     FM240000 29015G25KT P6SM SKC
     FM240400 30010G20KT P6SM SKC=



000
FTUS41 KRNK 230539
TAFLWB
TAF
KLWB 230539Z 2306/2406 33012G18KT P6SM SKC
     FM231400 28015G26KT P6SM SKC
     FM240000 31010G17KT P6SM SCT250=



000
FTUS41 KRNK 230539
TAFDAN
TAF
KDAN 230539Z 2306/2406 35010KT P6SM SKC
     FM231500 27017G28KT P6SM SKC
     FM240000 30007KT P6SM SKC=



000
FTUS41 KRNK 230539
TAFBLF
TAF
KBLF 230539Z 2306/2406 31010G18KT P6SM SKC
     FM231400 29018G27KT P6SM SKC
     FM240000 30010G20KT P6SM SKC=



000
FTUS41 KRNK 230539
TAFLYH
TAF
KLYH 230539Z 2306/2406 34006KT P6SM SKC
     FM231500 27012G22KT P6SM SKC
     FM240000 30005KT P6SM SKC=



000
FTUS41 KRNK 230539
TAFROA
TAF
KROA 230539Z 2306/2406 33015G22KT P6SM SKC
     FM231400 28022G30KT P6SM SKC
     FM240000 29015G25KT P6SM SKC
     FM240400 30010G20KT P6SM SKC=



000
FTUS41 KRNK 230539
TAFLWB
TAF
KLWB 230539Z 2306/2406 33012G18KT P6SM SKC
     FM231400 28015G26KT P6SM SKC
     FM240000 31010G17KT P6SM SCT250=



000
FTUS41 KRNK 230204 AAA
TAFBLF
TAF AMD
KBLF 230204Z 2302/2324 29011G22KT P6SM SCT040
     FM231400 28018G27KT P6SM SKC=



000
FTUS41 KRNK 230204 AAA
TAFBLF
TAF AMD
KBLF 230204Z 2302/2324 29011G22KT P6SM SCT040
     FM231400 28018G27KT P6SM SKC=



000
FTUS41 KRNK 230204 AAA
TAFBLF
TAF AMD
KBLF 230204Z 2302/2324 29011G22KT P6SM SCT040
     FM231400 28018G27KT P6SM SKC=



000
FTUS41 KRNK 230204 AAA
TAFBLF
TAF AMD
KBLF 230204Z 2302/2324 29011G22KT P6SM SCT040
     FM231400 28018G27KT P6SM SKC=



000
FTUS41 KRNK 230203 AAA
TAFDAN
TAF AMD
KDAN 230203Z 2302/2324 24011G21KT P6SM SKC
     FM230500 28009KT P6SM SKC
     FM231500 27017G28KT P6SM SKC=



000
FTUS41 KRNK 230203 AAA
TAFDAN
TAF AMD
KDAN 230203Z 2302/2324 24011G21KT P6SM SKC
     FM230500 28009KT P6SM SKC
     FM231500 27017G28KT P6SM SKC=



000
FTUS41 KRNK 230203 AAA
TAFDAN
TAF AMD
KDAN 230203Z 2302/2324 24011G21KT P6SM SKC
     FM230500 28009KT P6SM SKC
     FM231500 27017G28KT P6SM SKC=



    US Dept of Commerce
    National Oceanic and Atmospheric Administration
    National Weather Service
    1325 East West Highway
    Silver Spring, MD 20910
    Page Author: NWS Internet Services Team
Disclaimer
Information Quality
Credits
Glossary
Privacy Policy
Freedom of Information Act (FOIA)
About Us
Career Opportunities